sensor_id;sensor_type;location;lat;lon;timestamp;pressure;altitude;pressure_sealevel;temperature;humidity
56713;BME280;42589;45.536;9.032;2023-01-26T00:02:18;99919.16;;;13.69;43.83
56713;BME280;42589;45.536;9.032;2023-01-26T00:05:20;99909.78;;;13.81;44.13
56713;BME280;42589;45.536;9.032;2023-01-26T00:08:21;99920.81;;;13.86;44.53
56713;BME280;42589;45.536;9.032;2023-01-26T00:11:25;99922.16;;;13.74;44.64
56713;BME280;42589;45.536;9.032;2023-01-26T00:14:27;99911.25;;;13.92;44.03
56713;BME280;42589;45.536;9.032;2023-01-26T00:17:48;99921.25;;;14.06;43.29
56713;BME280;42589;45.536;9.032;2023-01-26T00:20:58;99913.00;;;14.24;44.17
56713;BME280;42589;45.536;9.032;2023-01-26T00:23:59;99920.72;;;14.11;43.69
56713;BME280;42589;45.536;9.032;2023-01-26T00:27:00;99901.69;;;14.06;43.33
56713;BME280;42589;45.536;9.032;2023-01-26T00:30:01;99893.44;;;14.24;43.05
56713;BME280;42589;45.536;9.032;2023-01-26T00:33:02;99905.66;;;14.18;43.48
56713;BME280;42589;45.536;9.032;2023-01-26T00:36:03;99882.91;;;14.22;43.00
56713;BME280;42589;45.536;9.032;2023-01-26T00:39:05;99899.38;;;14.42;42.76
56713;BME280;42589;45.536;9.032;2023-01-26T00:42:06;99877.59;;;14.14;43.88
56713;BME280;42589;45.536;9.032;2023-01-26T00:45:09;99875.63;;;14.08;43.29
56713;BME280;42589;45.536;9.032;2023-01-26T00:48:09;99891.03;;;13.98;43.37
56713;BME280;42589;45.536;9.032;2023-01-26T00:51:10;99880.88;;;13.93;43.88
56713;BME280;42589;45.536;9.032;2023-01-26T00:54:12;99879.16;;;14.00;43.80
56713;BME280;42589;45.536;9.032;2023-01-26T00:57:13;99863.88;;;13.78;44.19
56713;BME280;42589;45.536;9.032;2023-01-26T01:00:16;99887.38;;;13.99;43.89
56713;BME280;42589;45.536;9.032;2023-01-26T01:03:17;99857.09;;;14.06;43.97
56713;BME280;42589;45.536;9.032;2023-01-26T01:06:18;99859.22;;;14.19;43.21
56713;BME280;42589;45.536;9.032;2023-01-26T01:09:19;99865.59;;;14.10;43.22
56713;BME280;42589;45.536;9.032;2023-01-26T01:12:20;99863.59;;;14.12;43.61
56713;BME280;42589;45.536;9.032;2023-01-26T01:15:21;99862.22;;;14.16;43.45
56713;BME280;42589;45.536;9.032;2023-01-26T01:18:22;99858.19;;;14.20;43.66
56713;BME280;42589;45.536;9.032;2023-01-26T01:21:24;99861.06;;;14.19;43.66
56713;BME280;42589;45.536;9.032;2023-01-26T01:24:25;99850.44;;;14.33;43.07
56713;BME280;42589;45.536;9.032;2023-01-26T01:27:26;99840.63;;;14.26;43.51
56713;BME280;42589;45.536;9.032;2023-01-26T01:30:28;99835.72;;;14.06;43.80
56713;BME280;42589;45.536;9.032;2023-01-26T01:33:29;99831.88;;;14.01;43.92
56713;BME280;42589;45.536;9.032;2023-01-26T01:36:33;99841.34;;;14.51;44.13
56713;BME280;42589;45.536;9.032;2023-01-26T01:39:34;99836.22;;;14.33;43.07
56713;BME280;42589;45.536;9.032;2023-01-26T01:42:34;99828.25;;;13.93;44.15
56713;BME280;42589;45.536;9.032;2023-01-26T01:45:44;99817.50;;;13.70;44.84
56713;BME280;42589;45.536;9.032;2023-01-26T01:49:05;99821.31;;;13.68;44.60
56713;BME280;42589;45.536;9.032;2023-01-26T01:52:33;99833.25;;;13.97;45.06
56713;BME280;42589;45.536;9.032;2023-01-26T01:55:34;99833.41;;;13.95;44.36
56713;BME280;42589;45.536;9.032;2023-01-26T01:58:38;99804.69;;;13.97;45.10
56713;BME280;42589;45.536;9.032;2023-01-26T02:01:41;99827.66;;;14.14;43.95
56713;BME280;42589;45.536;9.032;2023-01-26T02:04:42;99830.06;;;14.32;43.60
56713;BME280;42589;45.536;9.032;2023-01-26T02:07:44;99808.38;;;14.27;43.52
56713;BME280;42589;45.536;9.032;2023-01-26T02:10:48;99799.13;;;14.07;43.79
56713;BME280;42589;45.536;9.032;2023-01-26T02:13:51;99815.63;;;14.10;43.39
56713;BME280;42589;45.536;9.032;2023-01-26T02:16:53;99804.25;;;14.16;43.97
56713;BME280;42589;45.536;9.032;2023-01-26T02:20:13;99804.94;;;14.10;44.13
56713;BME280;42589;45.536;9.032;2023-01-26T02:26:35;99812.81;;;14.12;44.54
56713;BME280;42589;45.536;9.032;2023-01-26T02:29:42;99792.34;;;13.96;43.91
56713;BME280;42589;45.536;9.032;2023-01-26T02:32:44;99776.03;;;14.14;43.66
56713;BME280;42589;45.536;9.032;2023-01-26T02:35:44;99787.56;;;14.14;43.82
56713;BME280;42589;45.536;9.032;2023-01-26T02:38:52;99769.41;;;14.02;44.35
56713;BME280;42589;45.536;9.032;2023-01-26T02:41:56;99778.34;;;14.17;43.41
56713;BME280;42589;45.536;9.032;2023-01-26T02:45:16;99767.28;;;14.20;43.26
56713;BME280;42589;45.536;9.032;2023-01-26T02:48:16;99764.38;;;14.07;43.62
56713;BME280;42589;45.536;9.032;2023-01-26T02:51:37;99764.34;;;14.15;43.66
56713;BME280;42589;45.536;9.032;2023-01-26T02:54:38;99748.94;;;14.17;43.80
56713;BME280;42589;45.536;9.032;2023-01-26T02:58:02;99746.31;;;14.09;43.94
56713;BME280;42589;45.536;9.032;2023-01-26T03:01:06;99737.78;;;13.82;43.80
56713;BME280;42589;45.536;9.032;2023-01-26T03:04:07;99730.66;;;13.66;44.12
56713;BME280;42589;45.536;9.032;2023-01-26T03:07:09;99735.84;;;13.68;44.37
56713;BME280;42589;45.536;9.032;2023-01-26T03:10:10;99722.09;;;13.79;44.04
56713;BME280;42589;45.536;9.032;2023-01-26T03:13:11;99728.41;;;13.86;44.27
56713;BME280;42589;45.536;9.032;2023-01-26T03:16:12;99720.59;;;14.08;43.74
56713;BME280;42589;45.536;9.032;2023-01-26T03:19:15;99733.25;;;14.14;44.03
56713;BME280;42589;45.536;9.032;2023-01-26T03:22:34;99729.13;;;14.11;43.66
56713;BME280;42589;45.536;9.032;2023-01-26T03:25:53;99712.31;;;13.94;44.18
56713;BME280;42589;45.536;9.032;2023-01-26T03:29:13;99724.25;;;13.84;44.31
56713;BME280;42589;45.536;9.032;2023-01-26T03:32:14;99732.13;;;14.08;44.36
56713;BME280;42589;45.536;9.032;2023-01-26T03:35:16;99738.31;;;14.09;44.10
56713;BME280;42589;45.536;9.032;2023-01-26T03:38:21;99731.91;;;14.18;43.95
56713;BME280;42589;45.536;9.032;2023-01-26T03:41:23;99719.03;;;13.90;44.06
56713;BME280;42589;45.536;9.032;2023-01-26T03:44:43;99733.19;;;13.99;44.33
56713;BME280;42589;45.536;9.032;2023-01-26T03:48:07;99726.50;;;13.95;44.25
56713;BME280;42589;45.536;9.032;2023-01-26T03:51:26;99725.41;;;14.12;44.07
56713;BME280;42589;45.536;9.032;2023-01-26T03:54:45;99726.50;;;14.26;43.59
56713;BME280;42589;45.536;9.032;2023-01-26T03:58:04;99698.94;;;14.03;43.90
56713;BME280;42589;45.536;9.032;2023-01-26T04:01:08;99713.34;;;13.93;44.33
56713;BME280;42589;45.536;9.032;2023-01-26T04:04:10;99717.75;;;14.09;44.53
56713;BME280;42589;45.536;9.032;2023-01-26T04:07:29;99714.06;;;14.10;43.97
56713;BME280;42589;45.536;9.032;2023-01-26T04:10:52;99714.84;;;13.96;45.06
56713;BME280;42589;45.536;9.032;2023-01-26T04:13:53;99707.22;;;13.85;44.69
56713;BME280;42589;45.536;9.032;2023-01-26T04:17:12;99706.16;;;13.94;44.22
56713;BME280;42589;45.536;9.032;2023-01-26T04:20:31;99700.31;;;14.22;43.93
56713;BME280;42589;45.536;9.032;2023-01-26T04:23:55;99697.44;;;14.00;44.02
56713;BME280;42589;45.536;9.032;2023-01-26T04:26:56;99704.19;;;13.88;45.38
56713;BME280;42589;45.536;9.032;2023-01-26T04:29:57;99685.38;;;14.04;44.54
56713;BME280;42589;45.536;9.032;2023-01-26T04:32:57;99685.84;;;13.85;44.51
56713;BME280;42589;45.536;9.032;2023-01-26T04:36:05;99690.84;;;14.11;44.37
56713;BME280;42589;45.536;9.032;2023-01-26T04:39:07;99670.81;;;13.84;44.85
56713;BME280;42589;45.536;9.032;2023-01-26T04:42:08;99682.03;;;13.79;45.14
56713;BME280;42589;45.536;9.032;2023-01-26T04:45:09;99667.03;;;14.24;44.31
56713;BME280;42589;45.536;9.032;2023-01-26T04:48:11;99681.94;;;14.19;44.21
56713;BME280;42589;45.536;9.032;2023-01-26T04:51:14;99662.28;;;14.11;44.49
56713;BME280;42589;45.536;9.032;2023-01-26T04:54:15;99659.66;;;14.26;43.71
56713;BME280;42589;45.536;9.032;2023-01-26T04:57:16;99664.63;;;14.29;44.49
56713;BME280;42589;45.536;9.032;2023-01-26T05:00:20;99671.41;;;14.63;43.85
56713;BME280;42589;45.536;9.032;2023-01-26T05:03:22;99654.81;;;14.45;42.99
56713;BME280;42589;45.536;9.032;2023-01-26T05:06:23;99669.41;;;14.19;43.86
56713;BME280;42589;45.536;9.032;2023-01-26T05:09:24;99674.50;;;14.29;43.70
56713;BME280;42589;45.536;9.032;2023-01-26T05:12:26;99654.13;;;14.05;43.97
56713;BME280;42589;45.536;9.032;2023-01-26T05:15:33;99673.78;;;14.35;43.68
56713;BME280;42589;45.536;9.032;2023-01-26T05:18:34;99658.53;;;14.21;43.87
56713;BME280;42589;45.536;9.032;2023-01-26T05:21:35;99650.50;;;14.21;43.77
56713;BME280;42589;45.536;9.032;2023-01-26T05:24:36;99646.00;;;14.21;43.95
56713;BME280;42589;45.536;9.032;2023-01-26T05:27:38;99663.59;;;14.15;44.24
56713;BME280;42589;45.536;9.032;2023-01-26T05:30:38;99657.88;;;14.19;44.84
56713;BME280;42589;45.536;9.032;2023-01-26T05:33:40;99655.72;;;14.60;43.30
56713;BME280;42589;45.536;9.032;2023-01-26T05:36:42;99665.75;;;14.58;42.86
56713;BME280;42589;45.536;9.032;2023-01-26T05:39:43;99661.78;;;14.54;43.39
56713;BME280;42589;45.536;9.032;2023-01-26T05:42:44;99650.59;;;14.50;44.38
56713;BME280;42589;45.536;9.032;2023-01-26T05:45:45;99655.81;;;14.67;43.07
56713;BME280;42589;45.536;9.032;2023-01-26T05:48:46;99650.19;;;14.38;43.20
56713;BME280;42589;45.536;9.032;2023-01-26T05:51:48;99659.41;;;14.59;43.64
56713;BME280;42589;45.536;9.032;2023-01-26T05:54:48;99639.72;;;14.52;42.93
56713;BME280;42589;45.536;9.032;2023-01-26T05:57:50;99654.44;;;14.56;43.16
56713;BME280;42589;45.536;9.032;2023-01-26T06:00:51;99649.34;;;14.61;43.61
56713;BME280;42589;45.536;9.032;2023-01-26T06:03:53;99647.78;;;14.29;44.34
56713;BME280;42589;45.536;9.032;2023-01-26T06:06:55;99659.59;;;14.34;44.10
56713;BME280;42589;45.536;9.032;2023-01-26T06:09:56;99643.56;;;14.34;43.52
56713;BME280;42589;45.536;9.032;2023-01-26T06:12:59;99638.16;;;14.20;43.87
56713;BME280;42589;45.536;9.032;2023-01-26T06:16:00;99641.16;;;14.39;43.00
56713;BME280;42589;45.536;9.032;2023-01-26T06:19:01;99655.84;;;14.44;42.83
56713;BME280;42589;45.536;9.032;2023-01-26T06:22:05;99645.75;;;14.31;43.49
56713;BME280;42589;45.536;9.032;2023-01-26T06:25:06;99640.56;;;14.14;42.92
56713;BME280;42589;45.536;9.032;2023-01-26T06:28:08;99646.75;;;14.30;43.55
56713;BME280;42589;45.536;9.032;2023-01-26T06:31:09;99649.50;;;14.22;43.13
56713;BME280;42589;45.536;9.032;2023-01-26T06:34:10;99650.34;;;14.22;43.27
56713;BME280;42589;45.536;9.032;2023-01-26T06:37:11;99636.53;;;14.33;42.96
56713;BME280;42589;45.536;9.032;2023-01-26T06:40:14;99638.72;;;14.30;43.71
56713;BME280;42589;45.536;9.032;2023-01-26T06:43:14;99633.38;;;14.30;43.11
56713;BME280;42589;45.536;9.032;2023-01-26T06:46:16;99634.69;;;14.34;44.24
56713;BME280;42589;45.536;9.032;2023-01-26T06:49:18;99639.78;;;14.06;43.90
56713;BME280;42589;45.536;9.032;2023-01-26T06:52:26;99635.00;;;14.16;44.27
56713;BME280;42589;45.536;9.032;2023-01-26T06:55:35;99640.78;;;14.28;43.65
56713;BME280;42589;45.536;9.032;2023-01-26T06:58:36;99645.13;;;14.06;43.98
56713;BME280;42589;45.536;9.032;2023-01-26T07:01:40;99636.63;;;14.02;43.92
56713;BME280;42589;45.536;9.032;2023-01-26T07:04:43;99630.88;;;13.90;44.40
56713;BME280;42589;45.536;9.032;2023-01-26T07:07:44;99644.53;;;14.19;44.38
56713;BME280;42589;45.536;9.032;2023-01-26T07:10:45;99647.88;;;14.35;43.06
56713;BME280;42589;45.536;9.032;2023-01-26T07:13:46;99630.91;;;14.28;43.77
56713;BME280;42589;45.536;9.032;2023-01-26T07:16:47;99641.06;;;14.10;44.20
56713;BME280;42589;45.536;9.032;2023-01-26T07:19:49;99646.00;;;13.98;44.87
56713;BME280;42589;45.536;9.032;2023-01-26T07:22:50;99649.56;;;14.13;43.88
56713;BME280;42589;45.536;9.032;2023-01-26T07:25:52;99636.88;;;13.92;44.08
56713;BME280;42589;45.536;9.032;2023-01-26T07:28:52;99649.72;;;14.35;43.56
56713;BME280;42589;45.536;9.032;2023-01-26T07:31:54;99656.66;;;13.75;44.89
56713;BME280;42589;45.536;9.032;2023-01-26T07:34:55;99657.34;;;14.00;43.71
56713;BME280;42589;45.536;9.032;2023-01-26T07:37:56;99655.38;;;13.94;44.43
56713;BME280;42589;45.536;9.032;2023-01-26T07:41:02;99663.75;;;13.60;45.96
56713;BME280;42589;45.536;9.032;2023-01-26T07:44:08;99670.78;;;13.61;45.46
56713;BME280;42589;45.536;9.032;2023-01-26T07:47:09;99647.22;;;13.64;45.09
56713;BME280;42589;45.536;9.032;2023-01-26T07:50:10;99654.22;;;13.65;45.66
56713;BME280;42589;45.536;9.032;2023-01-26T07:53:11;99653.13;;;13.83;44.59
56713;BME280;42589;45.536;9.032;2023-01-26T07:56:15;99634.00;;;13.71;44.67
56713;BME280;42589;45.536;9.032;2023-01-26T07:59:18;99644.09;;;14.07;44.33
56713;BME280;42589;45.536;9.032;2023-01-26T08:02:19;99647.88;;;14.35;43.71
56713;BME280;42589;45.536;9.032;2023-01-26T08:05:20;99645.13;;;14.06;44.54
56713;BME280;42589;45.536;9.032;2023-01-26T08:08:21;99626.69;;;14.11;43.64
56713;BME280;42589;45.536;9.032;2023-01-26T08:11:22;99645.66;;;14.39;43.54
56713;BME280;42589;45.536;9.032;2023-01-26T08:14:24;99638.00;;;14.21;43.34
56713;BME280;42589;45.536;9.032;2023-01-26T08:17:27;99643.84;;;14.92;42.40
56713;BME280;42589;45.536;9.032;2023-01-26T08:20:29;99655.47;;;14.47;42.87
56713;BME280;42589;45.536;9.032;2023-01-26T08:23:30;99651.69;;;13.95;42.93
56713;BME280;42589;45.536;9.032;2023-01-26T08:26:32;99654.25;;;13.88;42.90
56713;BME280;42589;45.536;9.032;2023-01-26T08:29:33;99646.22;;;14.34;42.30
56713;BME280;42589;45.536;9.032;2023-01-26T08:32:34;99649.72;;;13.89;42.22
56713;BME280;42589;45.536;9.032;2023-01-26T08:35:34;99647.69;;;13.99;43.21
56713;BME280;42589;45.536;9.032;2023-01-26T08:38:35;99652.34;;;14.20;42.49
56713;BME280;42589;45.536;9.032;2023-01-26T08:41:36;99648.81;;;14.43;41.86
56713;BME280;42589;45.536;9.032;2023-01-26T08:44:36;99652.28;;;14.51;40.85
56713;BME280;42589;45.536;9.032;2023-01-26T08:47:37;99657.81;;;14.27;40.71
56713;BME280;42589;45.536;9.032;2023-01-26T08:50:38;99651.53;;;13.97;41.85
56713;BME280;42589;45.536;9.032;2023-01-26T08:53:38;99643.69;;;13.95;41.42
56713;BME280;42589;45.536;9.032;2023-01-26T08:56:40;99651.13;;;14.46;41.44
56713;BME280;42589;45.536;9.032;2023-01-26T08:59:41;99647.34;;;14.40;41.65
56713;BME280;42589;45.536;9.032;2023-01-26T09:02:41;99652.75;;;14.55;40.64
56713;BME280;42589;45.536;9.032;2023-01-26T09:05:43;99646.41;;;14.56;40.65
56713;BME280;42589;45.536;9.032;2023-01-26T09:08:44;99653.03;;;14.60;40.31
56713;BME280;42589;45.536;9.032;2023-01-26T09:11:45;99641.47;;;14.97;39.60
56713;BME280;42589;45.536;9.032;2023-01-26T09:14:45;99656.19;;;14.93;39.65
56713;BME280;42589;45.536;9.032;2023-01-26T09:17:47;99656.31;;;14.47;41.11
56713;BME280;42589;45.536;9.032;2023-01-26T09:20:48;99657.88;;;14.19;40.64
56713;BME280;42589;45.536;9.032;2023-01-26T09:23:50;99657.09;;;14.56;40.07
56713;BME280;42589;45.536;9.032;2023-01-26T09:26:51;99660.34;;;15.25;39.53
56713;BME280;42589;45.536;9.032;2023-01-26T09:29:52;99654.56;;;14.92;39.78
56713;BME280;42589;45.536;9.032;2023-01-26T09:32:57;99651.47;;;14.51;40.59
56713;BME280;42589;45.536;9.032;2023-01-26T09:36:07;99639.13;;;14.79;40.58
56713;BME280;42589;45.536;9.032;2023-01-26T09:39:08;99651.06;;;14.92;40.20
56713;BME280;42589;45.536;9.032;2023-01-26T09:42:31;99656.66;;;14.97;39.35
56713;BME280;42589;45.536;9.032;2023-01-26T09:45:37;99660.94;;;15.72;38.18
56713;BME280;42589;45.536;9.032;2023-01-26T09:48:43;99661.91;;;15.86;37.52
56713;BME280;42589;45.536;9.032;2023-01-26T09:52:03;99651.53;;;15.61;38.45
56713;BME280;42589;45.536;9.032;2023-01-26T09:55:12;99657.22;;;15.37;38.80
56713;BME280;42589;45.536;9.032;2023-01-26T09:58:33;99662.72;;;15.50;38.63
56713;BME280;42589;45.536;9.032;2023-01-26T10:01:48;99649.03;;;15.60;36.61
56713;BME280;42589;45.536;9.032;2023-01-26T10:04:56;99646.09;;;15.91;37.26
56713;BME280;42589;45.536;9.032;2023-01-26T10:07:58;99643.28;;;15.12;38.46
56713;BME280;42589;45.536;9.032;2023-01-26T10:11:09;99650.44;;;16.13;36.65
56713;BME280;42589;45.536;9.032;2023-01-26T10:14:19;99646.88;;;16.06;36.88
56713;BME280;42589;45.536;9.032;2023-01-26T10:17:35;99654.81;;;16.14;36.87
56713;BME280;42589;45.536;9.032;2023-01-26T10:20:47;99639.63;;;16.50;36.02
56713;BME280;42589;45.536;9.032;2023-01-26T10:23:51;99643.94;;;16.01;36.11
56713;BME280;42589;45.536;9.032;2023-01-26T10:26:55;99637.88;;;15.41;37.86
56713;BME280;42589;45.536;9.032;2023-01-26T10:29:56;99624.91;;;15.74;36.68
56713;BME280;42589;45.536;9.032;2023-01-26T10:32:57;99638.75;;;15.27;38.06
56713;BME280;42589;45.536;9.032;2023-01-26T10:36:00;99626.31;;;15.70;36.63
56713;BME280;42589;45.536;9.032;2023-01-26T10:39:06;99607.94;;;15.67;36.33
56713;BME280;42589;45.536;9.032;2023-01-26T10:42:17;99606.22;;;15.45;37.32
56713;BME280;42589;45.536;9.032;2023-01-26T10:45:30;99609.22;;;15.93;36.42
56713;BME280;42589;45.536;9.032;2023-01-26T10:48:31;99609.69;;;15.96;36.43
56713;BME280;42589;45.536;9.032;2023-01-26T10:51:35;99584.59;;;16.32;35.40
56713;BME280;42589;45.536;9.032;2023-01-26T10:54:38;99586.75;;;16.43;35.28
56713;BME280;42589;45.536;9.032;2023-01-26T10:57:42;99599.47;;;16.35;35.78
56713;BME280;42589;45.536;9.032;2023-01-26T11:00:43;99579.97;;;16.19;35.92
56713;BME280;42589;45.536;9.032;2023-01-26T11:04:00;99581.72;;;16.06;36.04
56713;BME280;42589;45.536;9.032;2023-01-26T11:07:24;99584.88;;;16.16;36.21
56713;BME280;42589;45.536;9.032;2023-01-26T11:10:33;99561.09;;;16.06;35.77
56713;BME280;42589;45.536;9.032;2023-01-26T11:13:34;99569.63;;;16.16;35.46
56713;BME280;42589;45.536;9.032;2023-01-26T11:16:35;99551.94;;;16.22;34.84
56713;BME280;42589;45.536;9.032;2023-01-26T11:22:52;99552.78;;;16.01;36.04
56713;BME280;42589;45.536;9.032;2023-01-26T11:39:43;99524.03;;;16.44;35.60
56713;BME280;42589;45.536;9.032;2023-01-26T11:53:01;99495.38;;;16.52;34.53
56713;BME280;42589;45.536;9.032;2023-01-26T11:56:15;99501.38;;;16.19;35.34
56713;BME280;42589;45.536;9.032;2023-01-26T11:59:28;99480.53;;;16.14;34.43
56713;BME280;42589;45.536;9.032;2023-01-26T12:02:35;99490.63;;;16.47;34.91
56713;BME280;42589;45.536;9.032;2023-01-26T12:05:40;99481.22;;;16.71;34.80
56713;BME280;42589;45.536;9.032;2023-01-26T12:08:43;99479.94;;;17.08;34.80
56713;BME280;42589;45.536;9.032;2023-01-26T12:15:24;99461.97;;;16.61;34.78
56713;BME280;42589;45.536;9.032;2023-01-26T12:18:41;99450.78;;;16.09;35.12
56713;BME280;42589;45.536;9.032;2023-01-26T12:21:48;99433.25;;;16.13;35.04
56713;BME280;42589;45.536;9.032;2023-01-26T12:24:56;99437.91;;;16.33;35.43
56713;BME280;42589;45.536;9.032;2023-01-26T12:28:22;99444.81;;;16.14;35.06
56713;BME280;42589;45.536;9.032;2023-01-26T12:31:44;99420.03;;;16.46;34.31
56713;BME280;42589;45.536;9.032;2023-01-26T12:34:48;99430.00;;;15.83;35.06
56713;BME280;42589;45.536;9.032;2023-01-26T12:38:22;99427.06;;;16.54;34.66
56713;BME280;42589;45.536;9.032;2023-01-26T12:44:43;99420.75;;;15.00;36.40
56713;BME280;42589;45.536;9.032;2023-01-26T12:47:51;99423.81;;;14.75;37.58
56713;BME280;42589;45.536;9.032;2023-01-26T12:51:09;99408.69;;;15.53;35.30
56713;BME280;42589;45.536;9.032;2023-01-26T12:57:39;99396.72;;;15.49;34.67
56713;BME280;42589;45.536;9.032;2023-01-26T13:00:59;99382.78;;;15.89;34.86
56713;BME280;42589;45.536;9.032;2023-01-26T13:04:08;99382.19;;;15.87;33.67
56713;BME280;42589;45.536;9.032;2023-01-26T13:07:38;99389.56;;;15.85;33.93
56713;BME280;42589;45.536;9.032;2023-01-26T13:10:46;99378.03;;;15.84;34.24
56713;BME280;42589;45.536;9.032;2023-01-26T13:13:53;99358.81;;;16.15;33.55
56713;BME280;42589;45.536;9.032;2023-01-26T13:20:23;99364.66;;;15.35;35.01
56713;BME280;42589;45.536;9.032;2023-01-26T13:29:32;99359.44;;;16.65;32.48
56713;BME280;42589;45.536;9.032;2023-01-26T13:35:36;99339.03;;;16.16;33.63
56713;BME280;42589;45.536;9.032;2023-01-26T13:38:46;99345.63;;;15.79;34.38
56713;BME280;42589;45.536;9.032;2023-01-26T13:41:50;99340.13;;;15.59;34.21
56713;BME280;42589;45.536;9.032;2023-01-26T13:44:57;99347.13;;;16.30;33.57
56713;BME280;42589;45.536;9.032;2023-01-26T13:48:03;99343.00;;;16.27;33.25
56713;BME280;42589;45.536;9.032;2023-01-26T13:51:10;99337.38;;;15.24;34.93
56713;BME280;42589;45.536;9.032;2023-01-26T13:54:13;99337.75;;;14.21;36.91
56713;BME280;42589;45.536;9.032;2023-01-26T13:57:25;99331.88;;;15.04;35.80
56713;BME280;42589;45.536;9.032;2023-01-26T14:00:26;99329.97;;;14.77;36.50
56713;BME280;42589;45.536;9.032;2023-01-26T14:03:28;99323.53;;;15.42;35.12
56713;BME280;42589;45.536;9.032;2023-01-26T14:06:30;99312.91;;;16.38;33.27
56713;BME280;42589;45.536;9.032;2023-01-26T14:09:33;99331.41;;;16.20;33.58
56713;BME280;42589;45.536;9.032;2023-01-26T14:12:44;99332.00;;;15.74;34.71
56713;BME280;42589;45.536;9.032;2023-01-26T14:15:54;99326.97;;;15.64;34.58
56713;BME280;42589;45.536;9.032;2023-01-26T14:19:13;99316.09;;;14.88;35.41
56713;BME280;42589;45.536;9.032;2023-01-26T14:22:16;99311.19;;;15.76;34.12
56713;BME280;42589;45.536;9.032;2023-01-26T14:25:19;99329.69;;;15.99;34.13
56713;BME280;42589;45.536;9.032;2023-01-26T14:28:21;99317.97;;;15.44;34.42
56713;BME280;42589;45.536;9.032;2023-01-26T14:31:24;99311.13;;;15.41;34.67
56713;BME280;42589;45.536;9.032;2023-01-26T14:34:28;99314.19;;;16.01;33.58
56713;BME280;42589;45.536;9.032;2023-01-26T14:37:29;99310.72;;;16.68;32.86
56713;BME280;42589;45.536;9.032;2023-01-26T14:40:30;99314.00;;;16.70;32.87
56713;BME280;42589;45.536;9.032;2023-01-26T14:43:31;99309.66;;;16.50;32.88
56713;BME280;42589;45.536;9.032;2023-01-26T14:46:52;99317.22;;;16.33;33.19
56713;BME280;42589;45.536;9.032;2023-01-26T14:50:01;99308.19;;;16.40;33.14
56713;BME280;42589;45.536;9.032;2023-01-26T14:53:03;99320.41;;;16.69;32.77
56713;BME280;42589;45.536;9.032;2023-01-26T14:56:04;99306.03;;;16.90;32.42
56713;BME280;42589;45.536;9.032;2023-01-26T14:59:06;99304.88;;;16.52;32.27
56713;BME280;42589;45.536;9.032;2023-01-26T15:02:20;99301.28;;;16.11;32.58
56713;BME280;42589;45.536;9.032;2023-01-26T15:05:30;99314.28;;;16.14;33.27
56713;BME280;42589;45.536;9.032;2023-01-26T15:08:31;99310.19;;;15.77;33.31
56713;BME280;42589;45.536;9.032;2023-01-26T15:11:37;99319.19;;;15.13;34.24
56713;BME280;42589;45.536;9.032;2023-01-26T15:14:57;99312.72;;;15.29;34.73
56713;BME280;42589;45.536;9.032;2023-01-26T15:18:05;99303.47;;;15.03;35.26
56713;BME280;42589;45.536;9.032;2023-01-26T15:21:16;99296.53;;;15.16;35.12
56713;BME280;42589;45.536;9.032;2023-01-26T15:24:19;99317.97;;;15.44;34.50
56713;BME280;42589;45.536;9.032;2023-01-26T15:27:20;99297.66;;;15.56;33.61
56713;BME280;42589;45.536;9.032;2023-01-26T15:30:33;99296.72;;;14.86;35.68
56713;BME280;42589;45.536;9.032;2023-01-26T15:33:48;99309.34;;;14.34;36.44
56713;BME280;42589;45.536;9.032;2023-01-26T15:36:50;99302.81;;;15.01;35.53
56713;BME280;42589;45.536;9.032;2023-01-26T15:39:51;99299.25;;;15.50;34.58
56713;BME280;42589;45.536;9.032;2023-01-26T15:46:12;99307.19;;;15.65;34.14
56713;BME280;42589;45.536;9.032;2023-01-26T15:49:13;99300.53;;;15.54;34.03
56713;BME280;42589;45.536;9.032;2023-01-26T15:52:15;99286.81;;;15.36;34.46
56713;BME280;42589;45.536;9.032;2023-01-26T15:55:21;99303.34;;;14.69;35.58
56713;BME280;42589;45.536;9.032;2023-01-26T15:58:24;99297.41;;;14.73;35.81
56713;BME280;42589;45.536;9.032;2023-01-26T16:01:25;99291.28;;;15.01;34.74
56713;BME280;42589;45.536;9.032;2023-01-26T16:04:26;99299.28;;;14.73;35.83
56713;BME280;42589;45.536;9.032;2023-01-26T16:07:27;99281.53;;;14.50;35.71
56713;BME280;42589;45.536;9.032;2023-01-26T16:10:29;99297.31;;;14.09;36.94
56713;BME280;42589;45.536;9.032;2023-01-26T16:13:30;99299.34;;;14.07;37.25
56713;BME280;42589;45.536;9.032;2023-01-26T16:16:31;99281.19;;;14.38;35.71
56713;BME280;42589;45.536;9.032;2023-01-26T16:19:32;99295.59;;;14.37;36.85
56713;BME280;42589;45.536;9.032;2023-01-26T16:22:33;99305.63;;;14.35;37.71
56713;BME280;42589;45.536;9.032;2023-01-26T16:25:34;99294.38;;;14.40;37.78
56713;BME280;42589;45.536;9.032;2023-01-26T16:28:37;99274.44;;;14.43;37.34
56713;BME280;42589;45.536;9.032;2023-01-26T16:31:38;99290.84;;;14.54;37.34
56713;BME280;42589;45.536;9.032;2023-01-26T16:34:40;99294.38;;;14.40;37.95
56713;BME280;42589;45.536;9.032;2023-01-26T16:37:41;99300.63;;;14.11;38.88
56713;BME280;42589;45.536;9.032;2023-01-26T16:40:45;99290.94;;;14.25;38.88
56713;BME280;42589;45.536;9.032;2023-01-26T16:43:47;99300.09;;;14.73;37.97
56713;BME280;42589;45.536;9.032;2023-01-26T16:46:48;99303.50;;;14.09;38.91
56713;BME280;42589;45.536;9.032;2023-01-26T16:49:50;99279.44;;;13.94;38.81
56713;BME280;42589;45.536;9.032;2023-01-26T16:52:51;99292.34;;;14.06;38.55
56713;BME280;42589;45.536;9.032;2023-01-26T16:55:53;99285.53;;;13.88;38.80
56713;BME280;42589;45.536;9.032;2023-01-26T16:58:54;99296.78;;;13.84;38.90
56713;BME280;42589;45.536;9.032;2023-01-26T17:01:55;99286.66;;;13.94;38.44
56713;BME280;42589;45.536;9.032;2023-01-26T17:04:58;99312.25;;;14.03;39.20
56713;BME280;42589;45.536;9.032;2023-01-26T17:07:59;99310.34;;;13.67;39.64
56713;BME280;42589;45.536;9.032;2023-01-26T17:10:59;99307.03;;;13.65;40.18
56713;BME280;42589;45.536;9.032;2023-01-26T17:14:00;99313.00;;;13.82;39.71
56713;BME280;42589;45.536;9.032;2023-01-26T17:17:03;99312.25;;;13.88;39.16